Time;durP1;ratioP1;P1;durP2;ratioP2;P2;SDS_P1;SDS_P2;PMS_P1;PMS_P2;Temp;Humidity;BMP_temperature;BMP_pressure;BME280_temperature;BME280_humidity;BME280_pressure;Samples;Min_cycle;Max_cycle;Signal;HPM_P1;HPM_P2
2021/09/10 00:01:46;;;;;;;18.90;17.10;;;20.40;99.90;;;;;;5037525;28;20407;-93
2021/09/10 00:04:14;;;;;;;17.23;15.53;;;20.50;99.90;;;;;;5022027;28;20394;-93
2021/09/10 00:07:08;;;;;;;21.93;15.80;;;20.00;99.90;;;;;;5054077;28;20423;-92
2021/09/10 00:09:38;;;;;;;18.00;16.20;;;20.30;99.90;;;;;;5029720;28;20441;-92
2021/09/10 00:12:14;;;;;;;17.93;15.60;;;20.40;99.90;;;;;;5020482;28;20514;-92
2021/09/10 00:14:57;;;;;;;19.93;17.93;;;20.60;99.90;;;;;;5013513;28;20464;-93
2021/09/10 00:17:58;;;;;;;18.37;16.63;;;20.30;99.90;;;;;;5009975;28;20452;-93
2021/09/10 00:23:36;;;;;;;19.60;16.00;;;20.10;99.90;;;;;;4924723;29;20442;-92
2021/09/10 00:26:14;;;;;;;16.87;15.47;;;20.30;99.90;;;;;;4991821;28;20421;-92
2021/09/10 00:29:05;;;;;;;19.30;17.30;;;21.30;99.90;;;;;;4982475;28;20429;-93
2021/09/10 00:31:43;;;;;;;18.50;16.70;;;20.40;99.90;;;;;;4992486;28;20446;-92
2021/09/10 00:34:14;;;;;;;18.23;16.73;;;20.20;99.90;;;;;;4981422;28;20473;-93
2021/09/10 00:36:46;;;;;;;18.37;16.60;;;20.10;99.90;;;;;;5012983;28;20409;-93
2021/09/10 00:39:17;;;;;;;16.23;14.53;;;20.30;99.90;;;;;;4985323;28;20409;-93
2021/09/10 00:41:45;;;;;;;16.23;14.60;;;21.90;99.90;;;;;;5001411;28;20404;-93
2021/09/10 00:44:11;;;;;;;17.10;15.60;;;20.40;99.90;;;;;;4985058;28;20432;-90
2021/09/10 00:46:48;;;;;;;16.00;14.30;;;21.90;99.90;;;;;;5037282;28;20530;-94
2021/09/10 00:49:18;;;;;;;18.80;15.97;;;20.60;99.90;;;;;;5056580;28;20179;-93
2021/09/10 00:51:46;;;;;;;19.00;17.07;;;20.50;99.90;;;;;;5040207;28;20441;-93
2021/09/10 00:54:20;;;;;;;19.03;17.33;;;20.40;99.90;;;;;;5023527;28;20500;-93
2021/09/10 00:57:06;;;;;;;17.70;16.10;;;20.50;99.90;;;;;;5057433;28;20403;-93
2021/09/10 00:59:42;;;;;;;21.13;17.03;;;20.30;99.90;;;;;;5041071;28;20411;-95
2021/09/10 01:02:12;;;;;;;20.80;17.93;;;20.20;99.90;;;;;;5041471;28;20411;-93
2021/09/10 01:04:44;;;;;;;18.43;16.80;;;20.30;99.90;;;;;;5039619;28;20446;-94
2021/09/10 01:07:35;;;;;;;17.27;15.77;;;20.40;99.90;;;;;;5040470;28;20425;-93
2021/09/10 01:10:10;;;;;;;17.13;15.53;;;19.80;99.90;;;;;;5021413;28;20420;-93
2021/09/10 01:12:37;;;;;;;18.30;16.50;;;20.30;99.90;;;;;;5057992;28;20407;-93
2021/09/10 01:15:11;;;;;;;17.00;15.23;;;20.30;99.90;;;;;;5056779;28;20455;-93
2021/09/10 01:17:41;;;;;;;17.37;15.83;;;20.30;99.90;;;;;;5038957;28;20418;-93
2021/09/10 01:20:11;;;;;;;17.60;15.97;;;20.50;99.90;;;;;;5023037;28;20411;-94
2021/09/10 01:22:37;;;;;;;17.07;15.57;;;20.30;99.90;;;;;;5039220;28;20438;-93
2021/09/10 01:25:35;;;;;;;;;;;;;;;;;;;;;
2021/09/10 01:28:05;;;;;;;20.30;15.73;;;20.40;99.90;;;;;;5055131;28;20453;-92
2021/09/10 01:30:38;;;;;;;17.40;15.50;;;20.40;99.90;;;;;;5057246;28;20407;-92
2021/09/10 01:33:22;;;;;;;14.93;13.43;;;20.50;99.90;;;;;;5056978;28;20415;-93
2021/09/10 01:35:48;;;;;;;16.07;14.60;;;20.70;99.90;;;;;;5039828;28;20482;-94
2021/09/10 01:38:20;;;;;;;16.40;14.70;;;20.50;99.90;;;;;;5058542;28;20423;-93
2021/09/10 01:40:53;;;;;;;14.60;13.30;;;20.70;99.90;;;;;;5039531;28;20502;-94
2021/09/10 01:43:21;;;;;;;16.23;14.57;;;20.70;99.90;;;;;;5054353;28;20418;-94
2021/09/10 01:45:52;;;;;;;14.30;13.30;;;20.60;99.90;;;;;;5039409;28;20430;-93
2021/09/10 01:48:21;;;;;;;15.20;14.00;;;20.60;99.90;;;;;;5037182;28;20410;-94
2021/09/10 01:50:48;;;;;;;15.33;13.97;;;21.10;99.90;;;;;;5054309;28;20470;-94
2021/09/10 01:53:14;;;;;;;15.00;13.70;;;20.40;99.90;;;;;;5037691;28;20415;-94
2021/09/10 01:55:42;;;;;;;15.27;13.97;;;20.30;99.90;;;;;;5019721;28;20478;-94
2021/09/10 01:58:08;;;;;;;15.20;13.83;;;20.30;99.90;;;;;;5036480;28;20414;-94
2021/09/10 02:00:40;;;;;;;14.40;13.10;;;20.60;99.90;;;;;;5055495;28;20517;-94
2021/09/10 02:03:11;;;;;;;14.60;13.40;;;21.50;99.90;;;;;;5038964;28;20663;-93
2021/09/10 02:05:39;;;;;;;14.93;13.70;;;20.60;99.90;;;;;;5021661;28;20438;-94
2021/09/10 02:08:14;;;;;;;15.50;14.30;;;19.90;99.90;;;;;;5056020;28;20398;-94
2021/09/10 02:10:40;;;;;;;14.00;13.00;;;20.70;99.90;;;;;;5036541;28;20415;-94
2021/09/10 02:13:06;;;;;;;15.20;13.80;;;20.40;99.90;;;;;;5038211;28;20419;-93
2021/09/10 02:15:34;;;;;;;17.10;15.50;;;21.50;99.90;;;;;;5037236;28;20231;-94
2021/09/10 02:18:19;;;;;;;16.87;15.37;;;20.60;99.90;;;;;;5055919;28;20426;-93
2021/09/10 02:20:50;;;;;;;17.13;15.53;;;21.40;99.90;;;;;;5038696;28;20478;-93
2021/09/10 02:23:16;;;;;;;17.27;15.53;;;19.50;99.90;;;;;;5021078;28;20423;-94
2021/09/10 02:25:42;;;;;;;16.03;14.43;;;20.40;99.90;;;;;;5037272;28;20426;-94
2021/09/10 02:28:08;;;;;;;16.00;14.40;;;20.50;99.90;;;;;;5035031;28;20195;-94
2021/09/10 02:30:34;;;;;;;15.83;14.53;;;20.90;99.90;;;;;;5034228;28;20953;-94
2021/09/10 02:33:02;;;;;;;15.40;14.00;;;20.70;99.90;;;;;;5034844;28;20704;-94
2021/09/10 02:35:28;;;;;;;16.30;14.77;;;21.40;99.90;;;;;;5032588;28;20506;-92
2021/09/10 02:37:56;;;;;;;15.37;14.17;;;21.30;99.90;;;;;;5017345;28;20438;-92
2021/09/10 02:40:22;;;;;;;16.37;14.77;;;20.80;99.90;;;;;;5033355;28;20168;-94
2021/09/10 02:42:49;;;;;;;17.20;15.57;;;20.30;99.90;;;;;;5017937;28;20940;-93
2021/09/10 02:45:18;;;;;;;15.40;14.03;;;20.40;99.90;;;;;;5031524;28;20415;-94
2021/09/10 02:47:44;;;;;;;16.63;15.30;;;21.50;99.90;;;;;;5035551;28;20501;-94
2021/09/10 02:50:11;;;;;;;15.87;14.63;;;19.60;99.90;;;;;;5033550;28;20441;-93
2021/09/10 02:52:37;;;;;;;15.40;13.80;;;20.40;99.90;;;;;;5051857;28;20422;-94
2021/09/10 02:55:07;;;;;;;15.63;14.43;;;20.30;99.90;;;;;;5052002;28;20462;-94
2021/09/10 02:57:42;;;;;;;16.20;14.57;;;20.40;99.90;;;;;;5035137;28;20427;-94
2021/09/10 03:00:08;;;;;;;16.70;15.30;;;20.10;99.90;;;;;;5034846;28;20418;-93
2021/09/10 03:02:37;;;;;;;17.37;15.87;;;20.00;99.90;;;;;;5016428;28;20447;-93
2021/09/10 03:05:06;;;;;;;17.40;15.60;;;20.00;99.90;;;;;;5033660;28;20431;-93
2021/09/10 03:07:35;;;;;;;17.37;15.70;;;20.00;99.90;;;;;;5032308;28;20497;-93
2021/09/10 03:10:04;;;;;;;21.07;17.17;;;20.70;99.90;;;;;;5047616;28;20925;-93
2021/09/10 03:12:31;;;;;;;20.27;18.17;;;19.90;99.90;;;;;;5046771;28;20529;-93
2021/09/10 03:14:57;;;;;;;18.63;17.13;;;21.20;99.90;;;;;;5029255;28;20470;-92
2021/09/10 03:17:24;;;;;;;19.70;17.70;;;20.50;99.90;;;;;;5030361;28;20482;-93
2021/09/10 03:19:50;;;;;;;19.43;17.50;;;19.70;99.90;;;;;;5031295;28;20172;-92
2021/09/10 03:22:16;;;;;;;19.73;17.83;;;21.10;99.90;;;;;;5031151;28;20965;-93
2021/09/10 03:24:47;;;;;;;21.33;17.70;;;19.80;99.90;;;;;;5030944;28;20191;-94
2021/09/10 03:27:14;;;;;;;20.63;18.43;;;20.70;99.90;;;;;;5032126;28;20592;-93
2021/09/10 03:29:40;;;;;;;19.10;17.40;;;19.60;99.90;;;;;;5030389;28;20442;-94
2021/09/10 03:32:07;;;;;;;19.77;17.70;;;19.60;99.90;;;;;;5029433;28;20502;-93
2021/09/10 03:34:35;;;;;;;20.50;18.50;;;19.60;99.90;;;;;;5028226;28;20547;-94
2021/09/10 03:37:00;;;;;;;20.40;18.60;;;19.30;99.90;;;;;;5045676;28;20434;-93
2021/09/10 03:39:26;;;;;;;19.63;17.83;;;19.70;99.90;;;;;;5027524;28;20430;-94
2021/09/10 03:41:56;;;;;;;22.20;18.57;;;19.50;99.90;;;;;;5045894;28;20208;-94
2021/09/10 03:44:21;;;;;;;23.10;17.53;;;18.60;99.90;;;;;;5030476;28;20432;-92
2021/09/10 03:46:47;;;;;;;20.10;18.30;;;19.50;99.90;;;;;;5029791;28;20419;-94
2021/09/10 03:49:13;;;;;;;22.60;18.57;;;19.50;99.90;;;;;;5030081;28;20599;-94
2021/09/10 03:51:39;;;;;;;19.67;17.63;;;20.70;99.90;;;;;;5045056;28;20184;-93
2021/09/10 03:54:06;;;;;;;24.60;16.50;;;19.40;99.90;;;;;;5009194;28;20479;-94
2021/09/10 03:56:33;;;;;;;22.70;18.33;;;19.30;99.90;;;;;;5041484;28;20628;-93
2021/09/10 03:58:59;;;;;;;20.13;18.00;;;19.40;99.90;;;;;;5042425;28;20437;-94
2021/09/10 04:01:25;;;;;;;18.13;16.67;;;19.80;99.90;;;;;;5042267;28;20420;-93
2021/09/10 04:03:52;;;;;;;19.77;17.87;;;20.80;99.90;;;;;;5025428;28;20423;-93
2021/09/10 04:06:18;;;;;;;19.67;17.93;;;18.30;99.90;;;;;;5025827;28;20260;-93
2021/09/10 04:08:44;;;;;;;22.30;20.00;;;19.40;99.90;;;;;;5042954;28;20925;-94
2021/09/10 04:11:09;;;;;;;19.23;17.53;;;19.30;99.90;;;;;;5041277;28;20506;-95
2021/09/10 04:13:35;;;;;;;19.17;17.40;;;19.30;99.90;;;;;;5024721;28;20694;-94
2021/09/10 04:16:01;;;;;;;19.43;17.63;;;21.00;99.90;;;;;;5043222;28;20177;-94
2021/09/10 04:18:27;;;;;;;18.40;16.67;;;19.30;99.90;;;;;;5042768;28;20179;-94
2021/09/10 04:20:52;;;;;;;19.73;17.83;;;18.50;99.90;;;;;;5048276;28;20188;-93
2021/09/10 04:23:26;;;;;;;20.33;18.47;;;19.00;99.90;;;;;;5046949;28;20169;-94
2021/09/10 04:25:52;;;;;;;23.37;19.67;;;19.40;99.90;;;;;;5036768;28;20172;-94
2021/09/10 04:28:17;;;;;;;18.37;16.50;;;19.50;99.90;;;;;;5031886;28;20427;-93
2021/09/10 04:30:43;;;;;;;22.13;17.90;;;20.80;99.90;;;;;;5049159;28;20240;-91
2021/09/10 04:33:12;;;;;;;18.87;17.23;;;18.90;99.90;;;;;;5053671;28;20186;-93
2021/09/10 04:35:52;;;;;;;21.70;18.73;;;19.50;99.90;;;;;;5036622;28;20240;-93
2021/09/10 04:38:18;;;;;;;18.80;16.87;;;20.90;99.90;;;;;;5033413;28;20419;-92
2021/09/10 04:40:45;;;;;;;20.07;18.00;;;20.10;99.90;;;;;;5035027;28;20438;-94
2021/09/10 04:43:12;;;;;;;19.63;17.63;;;19.20;99.90;;;;;;5031416;28;20227;-94
2021/09/10 04:45:38;;;;;;;19.23;17.60;;;19.30;99.90;;;;;;5032267;28;20423;-92
2021/09/10 04:48:08;;;;;;;19.87;17.97;;;19.30;99.90;;;;;;5033319;28;20418;-94
2021/09/10 04:50:36;;;;;;;24.67;17.77;;;18.80;99.90;;;;;;5031822;28;20177;-92
2021/09/10 04:53:02;;;;;;;19.17;17.47;;;18.80;99.90;;;;;;5032418;28;20436;-92
2021/09/10 04:55:33;;;;;;;23.00;18.63;;;20.70;99.90;;;;;;5031332;28;20474;-93
2021/09/10 04:58:15;;;;;;;;;;;;;;;;;;;;;
2021/09/10 05:00:49;;;;;;;21.53;17.70;;;20.70;99.90;;;;;;5036321;28;20446;-93
2021/09/10 05:03:37;;;;;;;23.20;19.70;;;18.70;99.90;;;;;;5031677;28;20423;-91
2021/09/10 05:06:06;;;;;;;21.87;18.93;;;19.80;99.90;;;;;;5033714;28;20449;-93
2021/09/10 05:08:38;;;;;;;21.63;19.30;;;19.10;99.90;;;;;;5036330;28;20416;-93
2021/09/10 05:11:03;;;;;;;20.67;18.50;;;18.20;99.90;;;;;;5035469;28;20430;-91
2021/09/10 05:13:49;;;;;;;21.50;19.60;;;20.20;99.90;;;;;;5034413;28;20392;-94
2021/09/10 05:16:21;;;;;;;19.70;17.97;;;19.90;99.90;;;;;;5033897;28;20678;-93
2021/09/10 05:18:49;;;;;;;19.43;17.60;;;19.20;99.90;;;;;;5032389;28;20430;-93
2021/09/10 05:21:23;;;;;;;20.23;18.40;;;20.30;99.90;;;;;;5033883;28;20400;-93
2021/09/10 05:23:52;;;;;;;19.63;17.73;;;19.20;99.90;;;;;;5031481;28;20439;-94
2021/09/10 05:26:22;;;;;;;18.97;17.10;;;19.40;99.90;;;;;;5010255;28;20461;-91
2021/09/10 05:28:50;;;;;;;18.93;17.10;;;19.40;99.90;;;;;;5024201;28;20431;-95
2021/09/10 05:31:18;;;;;;;20.40;18.37;;;19.50;99.90;;;;;;5025297;28;20428;-90
2021/09/10 05:33:44;;;;;;;19.33;17.60;;;19.00;99.90;;;;;;5029123;28;20447;-88
2021/09/10 05:36:22;;;;;;;21.27;17.77;;;18.80;99.90;;;;;;5018473;28;20435;-92
2021/09/10 05:38:48;;;;;;;20.63;18.63;;;19.40;99.90;;;;;;5018789;28;20176;-89
2021/09/10 05:41:14;;;;;;;16.93;15.43;;;19.40;99.90;;;;;;5047517;28;20433;-92
2021/09/10 05:43:49;;;;;;;18.83;16.83;;;21.20;99.90;;;;;;5030103;28;20552;-93
2021/09/10 05:46:14;;;;;;;19.87;18.13;;;19.60;99.90;;;;;;5030635;28;20175;-90
2021/09/10 05:48:40;;;;;;;20.20;18.20;;;20.60;99.90;;;;;;5046041;28;20528;-90
2021/09/10 05:51:11;;;;;;;18.70;17.20;;;19.10;99.90;;;;;;5030076;28;20279;-91
2021/09/10 05:53:37;;;;;;;18.33;16.00;;;20.90;99.90;;;;;;5028252;28;20179;-89
2021/09/10 05:56:05;;;;;;;17.70;15.83;;;19.70;99.90;;;;;;5026133;28;20447;-94
2021/09/10 05:58:32;;;;;;;15.53;14.30;;;19.80;99.90;;;;;;5012151;28;20922;-88
2021/09/10 06:00:58;;;;;;;14.60;12.83;;;20.00;99.90;;;;;;5052234;28;20530;-91
2021/09/10 06:03:23;;;;;;;12.40;11.60;;;21.00;99.90;;;;;;5031853;28;20418;-94
2021/09/10 06:06:40;;;;;;;;;;;;;;;;;;;;;
2021/09/10 06:09:09;;;;;;;11.50;10.60;;;21.00;99.90;;;;;;5036563;28;20187;-92
2021/09/10 06:11:35;;;;;;;12.80;11.60;;;21.30;99.90;;;;;;5017715;28;20431;-91
2021/09/10 06:14:01;;;;;;;11.20;10.17;;;21.50;99.90;;;;;;5033506;28;20469;-93
2021/09/10 06:16:29;;;;;;;12.17;11.10;;;21.90;99.90;;;;;;5050161;28;20232;-92
2021/09/10 06:18:59;;;;;;;10.90;10.00;;;22.00;99.90;;;;;;5026142;28;20193;-92
2021/09/10 06:21:30;;;;;;;10.63;9.80;;;20.50;99.90;;;;;;5037159;28;20438;-93
2021/09/10 06:24:08;;;;;;;10.97;9.93;;;21.60;99.90;;;;;;5029040;28;20426;-92
2021/09/10 06:26:38;;;;;;;9.90;9.23;;;21.90;99.90;;;;;;5030000;28;20476;-89
2021/09/10 06:29:15;;;;;;;11.20;10.17;;;21.70;99.90;;;;;;5030072;28;20399;-92
2021/09/10 06:31:51;;;;;;;11.00;10.20;;;21.70;99.90;;;;;;5029503;28;20421;-92
2021/09/10 06:34:20;;;;;;;9.47;8.97;;;23.20;99.90;;;;;;5028525;28;20283;-93
2021/09/10 06:36:52;;;;;;;10.60;9.80;;;21.40;99.40;;;;;;5030715;28;20419;-91
2021/09/10 06:39:18;;;;;;;12.03;10.90;;;21.90;99.90;;;;;;5046777;28;20543;-92
2021/09/10 06:41:50;;;;;;;10.30;9.70;;;21.90;99.90;;;;;;4665804;28;9999989;-94
2021/09/10 06:44:16;;;;;;;8.90;8.40;;;21.80;99.90;;;;;;5029096;28;20420;-91
2021/09/10 06:46:43;;;;;;;10.03;9.03;;;21.50;99.90;;;;;;5012391;28;20427;-94
2021/09/10 06:49:18;;;;;;;10.40;9.70;;;22.40;99.90;;;;;;5009056;28;20442;-95
2021/09/10 06:51:43;;;;;;;9.87;9.17;;;21.70;99.90;;;;;;5012148;28;20493;-92
2021/09/10 06:54:09;;;;;;;10.70;9.80;;;21.30;99.90;;;;;;5005817;28;20530;-89
2021/09/10 06:56:35;;;;;;;8.90;8.20;;;23.10;99.90;;;;;;5005462;28;20176;-91
2021/09/10 06:59:03;;;;;;;9.43;8.80;;;20.90;99.50;;;;;;5013691;28;20189;-93
2021/09/10 07:01:32;;;;;;;9.30;8.70;;;21.90;99.90;;;;;;5028602;28;20408;-92
2021/09/10 07:04:00;;;;;;;8.70;7.70;;;22.30;99.20;;;;;;5010036;28;20730;-89
2021/09/10 07:06:30;;;;;;;8.03;7.43;;;22.90;98.20;;;;;;5029623;28;20526;-92
2021/09/10 07:09:05;;;;;;;8.10;7.50;;;23.60;95.60;;;;;;5032617;28;20408;-93
2021/09/10 07:11:48;;;;;;;;;;;;;;;;;;;;;
2021/09/10 07:14:16;;;;;;;6.80;6.50;;;24.90;90.10;;;;;;5048079;28;20577;-94
2021/09/10 07:16:45;;;;;;;7.60;6.43;;;26.10;82.80;;;;;;5023811;28;20479;-94
2021/09/10 07:19:16;;;;;;;6.23;5.97;;;25.50;83.50;;;;;;5019383;28;20431;-91
2021/09/10 07:21:44;;;;;;;5.97;5.50;;;26.70;80.60;;;;;;5040386;28;21057;-91
2021/09/10 07:24:10;;;;;;;5.90;5.60;;;27.90;78.60;;;;;;5018983;28;20415;-90
2021/09/10 07:26:36;;;;;;;6.27;5.93;;;28.90;75.20;;;;;;5046743;28;20556;-94
2021/09/10 07:29:06;;;;;;;5.70;5.50;;;27.40;70.50;;;;;;5015907;28;20809;-92
2021/09/10 07:31:32;;;;;;;5.93;5.60;;;27.80;68.70;;;;;;5032868;28;20433;-88
2021/09/10 07:33:57;;;;;;;5.87;5.77;;;28.10;67.30;;;;;;5038939;28;20466;-88
2021/09/10 07:36:23;;;;;;;5.57;5.37;;;28.40;64.30;;;;;;5034691;28;20168;-88
2021/09/10 07:38:49;;;;;;;6.40;5.97;;;28.60;65.10;;;;;;5036650;28;20175;-89
2021/09/10 07:41:14;;;;;;;5.77;5.37;;;28.80;62.80;;;;;;5049907;28;20210;-89
2021/09/10 07:43:40;;;;;;;5.90;5.60;;;28.40;62.90;;;;;;5020555;28;20265;-89
2021/09/10 07:46:06;;;;;;;6.50;6.20;;;29.20;64.10;;;;;;5038666;28;20972;-89
2021/09/10 07:48:32;;;;;;;5.60;5.40;;;30.10;65.50;;;;;;5037865;28;20170;-86
2021/09/10 07:50:58;;;;;;;5.70;5.57;;;27.60;63.50;;;;;;5037988;28;20164;-91
2021/09/10 07:53:24;;;;;;;5.40;5.07;;;27.40;64.70;;;;;;5018322;28;20979;-86
2021/09/10 07:55:49;;;;;;;4.50;4.30;;;28.80;59.40;;;;;;5012071;28;20225;-88
2021/09/10 07:58:22;;;;;;;5.00;4.90;;;29.10;59.50;;;;;;5024473;28;20234;-88
2021/09/10 08:00:47;;;;;;;4.60;4.50;;;29.70;59.60;;;;;;5005772;28;20211;-88
2021/09/10 08:03:13;;;;;;;5.13;5.00;;;;;;;;;;5015446;28;20408;-87
2021/09/10 08:05:40;;;;;;;4.40;4.30;;;30.00;56.60;;;;;;5018350;28;20168;-87
2021/09/10 08:08:06;;;;;;;5.23;4.87;;;30.00;57.00;;;;;;5015704;28;20432;-86
2021/09/10 08:10:31;;;;;;;4.93;4.73;;;31.10;58.00;;;;;;4996661;28;20449;-88
2021/09/10 08:12:57;;;;;;;4.63;4.53;;;29.80;57.40;;;;;;5012938;28;20169;-87
2021/09/10 08:15:23;;;;;;;4.43;4.27;;;29.10;57.70;;;;;;5015614;28;20342;-88
2021/09/10 08:17:48;;;;;;;4.30;4.13;;;28.40;58.10;;;;;;5035033;28;20160;-90
2021/09/10 08:20:14;;;;;;;4.33;4.23;;;28.00;59.90;;;;;;5017928;28;20228;-88
2021/09/10 08:22:41;;;;;;;4.10;4.10;;;27.80;60.50;;;;;;5033886;28;20164;-87
2021/09/10 08:25:09;;;;;;;4.47;4.47;;;27.60;60.90;;;;;;5016531;28;20215;-86
2021/09/10 08:27:36;;;;;;;4.53;4.23;;;27.70;61.70;;;;;;5035930;28;20431;-89
2021/09/10 08:30:04;;;;;;;4.60;4.27;;;26.90;60.30;;;;;;5037206;28;20422;-84
2021/09/10 08:32:29;;;;;;;4.27;4.07;;;27.90;60.30;;;;;;5033924;28;20407;-89
2021/09/10 08:34:58;;;;;;;4.97;4.63;;;28.20;59.30;;;;;;5015236;28;20486;-87
2021/09/10 08:37:26;;;;;;;4.63;4.53;;;28.80;59.70;;;;;;5017800;28;20830;-88
2021/09/10 08:39:51;;;;;;;5.10;4.80;;;29.60;58.80;;;;;;5016744;28;20472;-84
2021/09/10 08:42:17;;;;;;;4.43;4.30;;;;;;;;;;5034974;28;20939;-86
2021/09/10 08:44:44;;;;;;;4.63;4.47;;;;;;;;;;5016919;28;20195;-86
2021/09/10 08:47:11;;;;;;;4.43;4.10;;;;;;;;;;5036175;28;20680;-87
2021/09/10 08:49:41;;;;;;;3.63;3.33;;;;;;;;;;5036105;28;20774;-87
2021/09/10 08:52:23;;;;;;;4.20;4.10;;;;;;;;;;5041480;28;20407;-94
2021/09/10 08:54:50;;;;;;;4.47;3.60;;;;;;;;;;5023079;28;20513;-91
2021/09/10 08:57:16;;;;;;;3.10;3.10;;;;;;;;;;4997954;28;20430;-94
2021/09/10 08:59:42;;;;;;;4.10;3.90;;;;;;;;;;5023471;28;20407;-91
2021/09/10 09:02:16;;;;;;;3.60;3.60;;;;;;;;;;5014821;28;20433;-94
2021/09/10 09:04:48;;;;;;;6.27;3.67;;;31.70;50.80;;;;;;5030197;28;20825;-92
2021/09/10 09:07:15;;;;;;;4.03;3.93;;;31.50;51.50;;;;;;5031069;28;20481;-90
2021/09/10 09:09:47;;;;;;;5.00;4.80;;;31.10;51.90;;;;;;5028465;28;20522;-91
2021/09/10 09:12:26;;;;;;;3.93;3.90;;;30.30;52.70;;;;;;5048121;28;20411;-91
2021/09/10 09:15:03;;;;;;;3.50;3.50;;;29.40;53.70;;;;;;5030661;28;20458;-91
2021/09/10 09:17:41;;;;;;;4.77;4.47;;;28.60;55.30;;;;;;5031208;28;20446;-90
2021/09/10 09:20:37;;;;;;;;;;;;;;;;;;;;;
2021/09/10 09:23:21;;;;;;;;;;;;;;;;;;;;;
2021/09/10 09:25:49;;;;;;;5.50;5.00;;;27.30;58.40;;;;;;4993295;28;20450;-90
2021/09/10 09:28:32;;;;;;;5.83;5.57;;;27.10;59.70;;;;;;5010607;28;20447;-91
2021/09/10 09:31:02;;;;;;;6.27;5.87;;;26.80;59.60;;;;;;5028774;28;20446;-90
2021/09/10 09:33:37;;;;;;;4.80;4.70;;;26.90;59.80;;;;;;5046280;28;20421;-90
2021/09/10 09:36:06;;;;;;;5.43;5.13;;;27.70;59.30;;;;;;5027828;28;20466;-90
2021/09/10 09:38:39;;;;;;;6.50;6.20;;;28.30;58.20;;;;;;5024729;28;20449;-87
2021/09/10 09:41:18;;;;;;;6.17;5.60;;;29.00;57.40;;;;;;4332688;28;10000614;-92
2021/09/10 09:44:03;;;;;;;5.20;5.00;;;29.30;55.60;;;;;;5007258;28;20236;-93
2021/09/10 09:46:30;;;;;;;5.57;5.37;;;28.90;55.80;;;;;;5023188;28;20407;-90
2021/09/10 09:49:21;;;;;;;6.37;5.93;;;28.60;56.60;;;;;;5003939;28;20489;-88
2021/09/10 09:51:59;;;;;;;5.43;5.23;;;27.80;57.60;;;;;;5006979;28;20515;-89
2021/09/10 09:54:25;;;;;;;5.00;4.80;;;27.80;58.20;;;;;;5003178;28;20495;-89
2021/09/10 09:56:57;;;;;;;5.20;5.00;;;28.00;58.60;;;;;;5005802;28;20416;-91
2021/09/10 09:59:25;;;;;;;4.50;4.40;;;27.90;57.80;;;;;;5023647;28;20404;-89
2021/09/10 10:01:53;;;;;;;4.50;4.30;;;28.50;58.30;;;;;;5023208;28;20494;-91
2021/09/10 10:04:21;;;;;;;5.40;5.10;;;29.00;55.70;;;;;;5015747;28;20422;-89
2021/09/10 10:06:50;;;;;;;8.67;8.27;;;29.20;56.00;;;;;;5020384;28;20404;-90
2021/09/10 10:09:20;;;;;;;4.10;3.80;;;;;;;;;;5008052;28;20415;-91
2021/09/10 10:12:04;;;;;;;4.00;3.80;;;;;;;;;;4988644;28;20419;-92
2021/09/10 10:14:32;;;;;;;3.57;3.37;;;;;;;;;;5006347;28;20526;-91
2021/09/10 10:17:02;;;;;;;4.37;4.07;;;;;;;;;;5004499;28;20426;-91
2021/09/10 10:19:36;;;;;;;3.53;3.43;;;;;;;;;;5005813;28;20523;-90
2021/09/10 10:22:11;;;;;;;4.60;4.40;;;32.10;48.30;;;;;;4998399;28;20428;-89
2021/09/10 10:24:55;;;;;;;4.70;4.33;;;31.90;51.10;;;;;;4986640;28;20424;-91
2021/09/10 10:27:40;;;;;;;4.50;4.33;;;30.40;52.40;;;;;;5004730;28;20488;-89
2021/09/10 10:30:18;;;;;;;4.43;4.03;;;29.90;52.40;;;;;;5001675;28;20426;-89
2021/09/10 10:32:44;;;;;;;4.83;4.50;;;29.40;54.10;;;;;;5003322;28;20408;-90
2021/09/10 10:35:40;;;;;;;4.47;4.37;;;28.80;55.00;;;;;;5016512;28;20479;-89
2021/09/10 10:38:12;;;;;;;4.30;4.10;;;28.70;55.30;;;;;;5020500;28;20410;-89
2021/09/10 10:40:42;;;;;;;4.10;4.00;;;28.40;55.70;;;;;;5028201;28;20929;-90
2021/09/10 10:43:17;;;;;;;4.27;3.87;;;28.30;56.40;;;;;;5022844;28;20426;-87
2021/09/10 10:45:55;;;;;;;4.07;4.07;;;28.30;56.50;;;;;;5041715;28;20457;-90
2021/09/10 10:48:43;;;;;;;4.50;4.37;;;28.60;55.80;;;;;;5028897;28;20426;-90
2021/09/10 10:51:21;;;;;;;5.00;4.70;;;27.70;55.80;;;;;;5031653;28;20446;-90
2021/09/10 10:53:46;;;;;;;4.70;4.60;;;27.90;56.80;;;;;;5029551;28;20487;-88
2021/09/10 10:56:21;;;;;;;4.53;4.43;;;27.80;58.20;;;;;;5029113;28;20474;-91
2021/09/10 10:59:13;;;;;;;6.17;5.77;;;27.30;58.30;;;;;;5029282;28;20168;-87
2021/09/10 11:02:17;;;;;;;29.63;27.60;;;26.20;58.40;;;;;;5024113;28;20422;-87
2021/09/10 11:04:47;;;;;;;5.80;5.43;;;26.20;61.90;;;;;;5023621;28;20430;-89
2021/09/10 11:07:18;;;;;;;5.63;5.30;;;25.80;64.70;;;;;;5004954;28;20831;-91
2021/09/10 11:10:00;;;;;;;4.10;4.00;;;25.20;65.30;;;;;;5006581;28;20408;-88
2021/09/10 11:12:27;;;;;;;4.13;3.93;;;25.10;66.20;;;;;;5005618;28;20424;-90
2021/09/10 11:14:53;;;;;;;3.97;3.87;;;26.20;72.50;;;;;;5004766;28;20540;-91
2021/09/10 11:17:29;;;;;;;5.03;4.57;;;23.50;77.40;;;;;;5004482;28;20419;-92
2021/09/10 11:19:57;;;;;;;4.10;3.80;;;23.00;82.90;;;;;;4988339;28;20465;-84
2021/09/10 11:22:27;;;;;;;4.73;4.60;;;22.50;87.20;;;;;;5003147;28;20423;-89
2021/09/10 11:25:07;;;;;;;5.63;5.40;;;22.30;91.30;;;;;;5006800;28;20404;-88
2021/09/10 11:27:39;;;;;;;5.10;5.00;;;22.20;95.20;;;;;;5021247;28;20407;-90
2021/09/10 11:30:14;;;;;;;5.00;4.80;;;22.60;99.70;;;;;;5004029;28;20527;-91
2021/09/10 11:32:42;;;;;;;5.87;5.47;;;22.30;99.10;;;;;;5023436;28;20403;-87
2021/09/10 11:35:21;;;;;;;5.60;5.40;;;22.50;99.60;;;;;;5036670;28;20478;-88
2021/09/10 11:37:53;;;;;;;5.50;5.30;;;22.60;99.40;;;;;;5042789;28;20505;-90
2021/09/10 11:40:57;;;;;;;4.27;4.07;;;24.20;99.90;;;;;;5042280;28;20514;-89
2021/09/10 11:43:35;;;;;;;4.90;4.60;;;22.80;98.90;;;;;;5011429;28;20429;-89
2021/09/10 11:46:05;;;;;;;3.73;3.53;;;23.00;98.80;;;;;;5029339;28;20494;-89
2021/09/10 11:48:34;;;;;;;4.80;3.97;;;22.10;98.70;;;;;;5039926;28;20407;-90
2021/09/10 11:51:04;;;;;;;3.67;3.57;;;24.00;97.20;;;;;;5039807;28;20517;-94
2021/09/10 11:53:35;;;;;;;3.83;3.60;;;25.40;93.70;;;;;;5022786;28;20502;-91
2021/09/10 11:56:06;;;;;;;3.67;3.67;;;26.30;88.80;;;;;;5021219;28;20580;-88
2021/09/10 11:58:43;;;;;;;3.43;3.23;;;26.90;85.10;;;;;;5021210;28;20884;-91
2021/09/10 12:01:23;;;;;;;2.73;2.63;;;28.20;81.60;;;;;;5022283;28;20465;-94
2021/09/10 12:04:10;;;;;;;3.80;3.70;;;27.40;77.20;;;;;;5035003;28;20845;-90
2021/09/10 12:06:53;;;;;;;3.77;3.70;;;27.90;75.20;;;;;;5022280;28;20453;-94
2021/09/10 12:09:27;;;;;;;4.57;4.30;;;27.70;71.90;;;;;;5023724;28;20777;-91
2021/09/10 12:12:28;;;;;;;;;;;;;;;;;;;;;
2021/09/10 12:15:17;;;;;;;4.50;4.30;;;26.90;73.30;;;;;;5040935;28;20556;-91
2021/09/10 12:18:05;;;;;;;5.07;4.87;;;26.90;77.00;;;;;;5024263;28;20554;-90
2021/09/10 12:20:52;;;;;;;5.10;4.90;;;26.70;74.60;;;;;;5023427;28;20494;-91
2021/09/10 12:23:38;;;;;;;4.80;4.60;;;26.50;75.10;;;;;;5027431;28;20529;-91
2021/09/10 12:26:03;;;;;;;4.90;4.70;;;27.50;85.40;;;;;;5028628;28;20430;-90
2021/09/10 12:28:41;;;;;;;4.10;3.90;;;28.00;72.80;;;;;;5022002;28;20418;-92
2021/09/10 12:31:19;;;;;;;3.88;3.75;;;;;;;;;;4671278;28;10000192;-92
2021/09/10 12:33:45;;;;;;;4.93;4.73;;;;;;;;;;5003140;28;20416;-88
2021/09/10 12:36:23;;;;;;;4.97;4.77;;;;;;;;;;5007222;28;20467;-88
2021/09/10 12:39:13;;;;;;;4.53;4.43;;;;;;;;;;5030102;28;20417;-89
2021/09/10 12:41:39;;;;;;;4.03;3.77;;;;;;;;;;5018599;28;20488;-87
2021/09/10 12:44:09;;;;;;;2.83;2.80;;;;;;;;;;5020348;28;20483;-86
2021/09/10 12:46:38;;;;;;;2.30;2.30;;;;;;;;;;5038140;28;20490;-86
2021/09/10 12:49:04;;;;;;;3.30;3.10;;;;;;;;;;5023107;28;20426;-89
2021/09/10 12:51:30;;;;;;;3.60;3.50;;;30.80;54.70;;;;;;5038123;28;20450;-86
2021/09/10 12:53:56;;;;;;;2.80;2.80;;;30.60;55.40;;;;;;5037428;28;20410;-86
2021/09/10 12:56:24;;;;;;;2.60;2.60;;;29.60;56.40;;;;;;5020960;28;20430;-87
2021/09/10 12:58:50;;;;;;;2.73;2.73;;;29.70;57.90;;;;;;5038261;28;20168;-90
2021/09/10 13:01:16;;;;;;;2.90;2.90;;;28.20;58.20;;;;;;5039558;28;20878;-88
2021/09/10 13:03:42;;;;;;;2.87;2.83;;;27.70;59.40;;;;;;5038366;28;20164;-86
2021/09/10 13:06:10;;;;;;;2.70;2.70;;;26.70;60.50;;;;;;5041528;28;20490;-88
2021/09/10 13:08:40;;;;;;;3.73;3.73;;;28.50;65.70;;;;;;5039586;28;20407;-89
2021/09/10 13:11:06;;;;;;;3.93;3.67;;;26.80;63.30;;;;;;5020903;28;20453;-88
2021/09/10 13:13:31;;;;;;;3.50;3.50;;;26.50;66.60;;;;;;5041876;28;20419;-90
2021/09/10 13:16:01;;;;;;;4.60;4.23;;;26.20;67.10;;;;;;5040213;28;20287;-85
2021/09/10 13:18:26;;;;;;;4.03;3.83;;;25.70;69.50;;;;;;5020323;28;20175;-89